Tunnerville, South Dakota
Current Conditions -  °F | °C
As of 10:34 PM on Thursday 20 Nov 2014 (Local Time) from KCNB Reporting Station
Clear Clear  
Wind Chill:   Ceiling: Unl
Heat Index: 10°   Visibility: 10mi
Dew Point:   Wind: 6mph
Humidity: 83%   Direction: 200°SSW
Pressure: 30.18"   Gusts: NA
Location:  44.7895°N, 96.7201°W
Report Text: KCNB 210434Z AUTO 20005KT 10SM CLR M12/M15 A3018 RMK AO2 T11251148
Loading
Personal Weather Stations






























Interactive Weather Map New forecast layout! Learn more

10-Day Weather Forecast

Advertisements
Track Severe Weather on mobile